sensor_id;sensor_type;location;lat;lon;timestamp;temperature;humidity
11107;DHT22;5607;48.302;14.294;2023-04-24T00:01:22;14.90;99.90
11107;DHT22;5607;48.302;14.294;2023-04-24T00:04:08;14.80;1.00
11107;DHT22;5607;48.302;14.294;2023-04-24T00:06:56;14.70;1.00
11107;DHT22;5607;48.302;14.294;2023-04-24T00:09:45;14.60;1.00
11107;DHT22;5607;48.302;14.294;2023-04-24T00:12:32;14.60;1.00
11107;DHT22;5607;48.302;14.294;2023-04-24T00:15:18;14.50;1.00
11107;DHT22;5607;48.302;14.294;2023-04-24T00:18:04;14.60;1.00
11107;DHT22;5607;48.302;14.294;2023-04-24T00:20:51;14.60;1.00
11107;DHT22;5607;48.302;14.294;2023-04-24T00:23:37;14.60;1.00
11107;DHT22;5607;48.302;14.294;2023-04-24T00:26:23;14.50;1.00
11107;DHT22;5607;48.302;14.294;2023-04-24T00:29:09;14.50;1.00
11107;DHT22;5607;48.302;14.294;2023-04-24T00:31:56;14.50;1.00
11107;DHT22;5607;48.302;14.294;2023-04-24T00:34:42;14.50;1.00
11107;DHT22;5607;48.302;14.294;2023-04-24T00:37:28;14.50;1.00
11107;DHT22;5607;48.302;14.294;2023-04-24T00:40:15;14.60;1.00
11107;DHT22;5607;48.302;14.294;2023-04-24T00:43:02;14.50;1.00
11107;DHT22;5607;48.302;14.294;2023-04-24T00:45:48;14.60;1.00
11107;DHT22;5607;48.302;14.294;2023-04-24T00:48:34;14.60;1.00
11107;DHT22;5607;48.302;14.294;2023-04-24T00:51:20;14.70;1.00
11107;DHT22;5607;48.302;14.294;2023-04-24T00:54:07;14.70;1.00
11107;DHT22;5607;48.302;14.294;2023-04-24T00:56:53;14.70;1.00
11107;DHT22;5607;48.302;14.294;2023-04-24T00:59:39;14.70;1.00
11107;DHT22;5607;48.302;14.294;2023-04-24T01:02:27;14.70;1.00
11107;DHT22;5607;48.302;14.294;2023-04-24T01:05:13;14.70;1.00
11107;DHT22;5607;48.302;14.294;2023-04-24T01:08:00;14.70;1.00
11107;DHT22;5607;48.302;14.294;2023-04-24T01:10:47;14.60;1.00
11107;DHT22;5607;48.302;14.294;2023-04-24T01:13:34;14.50;1.00
11107;DHT22;5607;48.302;14.294;2023-04-24T01:16:20;14.40;1.00
11107;DHT22;5607;48.302;14.294;2023-04-24T01:19:09;14.30;1.00
11107;DHT22;5607;48.302;14.294;2023-04-24T01:21:56;14.30;1.00
11107;DHT22;5607;48.302;14.294;2023-04-24T01:24:44;14.30;1.00
11107;DHT22;5607;48.302;14.294;2023-04-24T01:27:30;14.40;1.00
11107;DHT22;5607;48.302;14.294;2023-04-24T01:30:16;14.30;1.00
11107;DHT22;5607;48.302;14.294;2023-04-24T01:33:02;14.40;1.00
11107;DHT22;5607;48.302;14.294;2023-04-24T01:35:49;14.30;1.00
11107;DHT22;5607;48.302;14.294;2023-04-24T01:38:36;14.30;1.00
11107;DHT22;5607;48.302;14.294;2023-04-24T01:41:22;14.20;1.00
11107;DHT22;5607;48.302;14.294;2023-04-24T01:44:09;14.20;1.00
11107;DHT22;5607;48.302;14.294;2023-04-24T01:46:55;14.10;1.00
11107;DHT22;5607;48.302;14.294;2023-04-24T01:49:42;14.10;1.00
11107;DHT22;5607;48.302;14.294;2023-04-24T01:52:28;14.10;12.50
11107;DHT22;5607;48.302;14.294;2023-04-24T01:55:17;14.10;17.40
11107;DHT22;5607;48.302;14.294;2023-04-24T01:58:03;14.10;32.90
11107;DHT22;5607;48.302;14.294;2023-04-24T02:00:50;14.10;22.40
11107;DHT22;5607;48.302;14.294;2023-04-24T02:03:36;14.10;28.50
11107;DHT22;5607;48.302;14.294;2023-04-24T02:06:22;14.10;28.60
11107;DHT22;5607;48.302;14.294;2023-04-24T02:09:09;14.20;31.90
11107;DHT22;5607;48.302;14.294;2023-04-24T02:11:56;14.30;18.50
11107;DHT22;5607;48.302;14.294;2023-04-24T02:14:43;14.30;2.40
11107;DHT22;5607;48.302;14.294;2023-04-24T02:17:30;14.20;20.30
11107;DHT22;5607;48.302;14.294;2023-04-24T02:20:18;14.30;18.80
11107;DHT22;5607;48.302;14.294;2023-04-24T02:23:04;14.30;25.00
11107;DHT22;5607;48.302;14.294;2023-04-24T02:25:51;14.30;38.40
11107;DHT22;5607;48.302;14.294;2023-04-24T02:28:39;14.30;52.40
11107;DHT22;5607;48.302;14.294;2023-04-24T02:31:25;14.10;47.10
11107;DHT22;5607;48.302;14.294;2023-04-24T02:34:11;14.10;65.50
11107;DHT22;5607;48.302;14.294;2023-04-24T02:36:58;14.00;90.70
11107;DHT22;5607;48.302;14.294;2023-04-24T02:39:44;13.80;99.90
11107;DHT22;5607;48.302;14.294;2023-04-24T02:42:30;13.80;99.90
11107;DHT22;5607;48.302;14.294;2023-04-24T02:45:16;13.80;99.90
11107;DHT22;5607;48.302;14.294;2023-04-24T02:48:02;13.80;99.90
11107;DHT22;5607;48.302;14.294;2023-04-24T02:50:49;13.60;99.90
11107;DHT22;5607;48.302;14.294;2023-04-24T02:53:36;13.60;99.90
11107;DHT22;5607;48.302;14.294;2023-04-24T02:56:22;13.60;99.90
11107;DHT22;5607;48.302;14.294;2023-04-24T02:59:09;13.80;99.90
11107;DHT22;5607;48.302;14.294;2023-04-24T03:01:56;13.70;99.90
11107;DHT22;5607;48.302;14.294;2023-04-24T03:04:42;13.80;99.90
11107;DHT22;5607;48.302;14.294;2023-04-24T03:07:29;13.80;99.90
11107;DHT22;5607;48.302;14.294;2023-04-24T03:10:15;13.80;99.90
11107;DHT22;5607;48.302;14.294;2023-04-24T03:13:01;13.80;99.90
11107;DHT22;5607;48.302;14.294;2023-04-24T03:15:48;13.80;99.90
11107;DHT22;5607;48.302;14.294;2023-04-24T03:18:34;13.70;99.90
11107;DHT22;5607;48.302;14.294;2023-04-24T03:21:20;13.70;99.90
11107;DHT22;5607;48.302;14.294;2023-04-24T03:24:07;13.80;99.90
11107;DHT22;5607;48.302;14.294;2023-04-24T03:26:53;13.70;92.00
11107;DHT22;5607;48.302;14.294;2023-04-24T03:29:39;13.60;99.90
11107;DHT22;5607;48.302;14.294;2023-04-24T03:32:26;13.60;89.90
11107;DHT22;5607;48.302;14.294;2023-04-24T03:35:12;13.70;99.90
11107;DHT22;5607;48.302;14.294;2023-04-24T03:37:58;13.70;99.90
11107;DHT22;5607;48.302;14.294;2023-04-24T03:40:44;13.70;85.60
11107;DHT22;5607;48.302;14.294;2023-04-24T03:43:31;13.60;91.90
11107;DHT22;5607;48.302;14.294;2023-04-24T03:46:19;13.50;99.90
11107;DHT22;5607;48.302;14.294;2023-04-24T03:49:05;13.50;99.90
11107;DHT22;5607;48.302;14.294;2023-04-24T03:54:58;13.50;99.90
11107;DHT22;5607;48.302;14.294;2023-04-24T03:57:45;13.40;99.90
11107;DHT22;5607;48.302;14.294;2023-04-24T04:00:31;13.40;99.90
11107;DHT22;5607;48.302;14.294;2023-04-24T04:03:18;13.40;99.90
11107;DHT22;5607;48.302;14.294;2023-04-24T04:06:04;13.50;99.90
11107;DHT22;5607;48.302;14.294;2023-04-24T04:08:50;13.40;99.90
11107;DHT22;5607;48.302;14.294;2023-04-24T04:11:36;13.50;99.90
11107;DHT22;5607;48.302;14.294;2023-04-24T04:14:23;13.50;99.90
11107;DHT22;5607;48.302;14.294;2023-04-24T04:17:09;13.50;99.90
11107;DHT22;5607;48.302;14.294;2023-04-24T04:19:55;13.50;99.90
11107;DHT22;5607;48.302;14.294;2023-04-24T04:22:42;13.60;99.90
11107;DHT22;5607;48.302;14.294;2023-04-24T04:25:28;13.60;99.90
11107;DHT22;5607;48.302;14.294;2023-04-24T04:28:15;13.70;99.90
11107;DHT22;5607;48.302;14.294;2023-04-24T04:31:01;13.70;99.90
11107;DHT22;5607;48.302;14.294;2023-04-24T04:33:48;13.70;99.90
11107;DHT22;5607;48.302;14.294;2023-04-24T04:36:35;13.70;99.90
11107;DHT22;5607;48.302;14.294;2023-04-24T04:39:22;13.70;91.20
11107;DHT22;5607;48.302;14.294;2023-04-24T04:42:09;13.80;97.80
11107;DHT22;5607;48.302;14.294;2023-04-24T04:44:55;13.90;83.80
11107;DHT22;5607;48.302;14.294;2023-04-24T04:47:43;13.80;84.20
11107;DHT22;5607;48.302;14.294;2023-04-24T04:50:30;13.70;76.70
11107;DHT22;5607;48.302;14.294;2023-04-24T04:53:17;13.70;99.90
11107;DHT22;5607;48.302;14.294;2023-04-24T04:56:03;13.50;96.70
11107;DHT22;5607;48.302;14.294;2023-04-24T04:58:49;13.70;99.90
11107;DHT22;5607;48.302;14.294;2023-04-24T05:01:35;13.70;99.90
11107;DHT22;5607;48.302;14.294;2023-04-24T05:04:22;13.80;99.90
11107;DHT22;5607;48.302;14.294;2023-04-24T05:07:08;13.70;85.00
11107;DHT22;5607;48.302;14.294;2023-04-24T05:09:55;13.70;99.90
11107;DHT22;5607;48.302;14.294;2023-04-24T05:12:41;13.60;99.90
11107;DHT22;5607;48.302;14.294;2023-04-24T05:15:27;13.60;99.90
11107;DHT22;5607;48.302;14.294;2023-04-24T05:18:13;13.70;99.90
11107;DHT22;5607;48.302;14.294;2023-04-24T05:21:00;13.60;89.70
11107;DHT22;5607;48.302;14.294;2023-04-24T05:23:46;13.60;99.90
11107;DHT22;5607;48.302;14.294;2023-04-24T05:26:32;13.60;99.90
11107;DHT22;5607;48.302;14.294;2023-04-24T05:29:18;13.60;99.90
11107;DHT22;5607;48.302;14.294;2023-04-24T05:32:05;13.60;94.70
11107;DHT22;5607;48.302;14.294;2023-04-24T05:34:51;13.50;94.70
11107;DHT22;5607;48.302;14.294;2023-04-24T05:37:38;13.50;84.10
11107;DHT22;5607;48.302;14.294;2023-04-24T05:40:24;13.50;71.80
11107;DHT22;5607;48.302;14.294;2023-04-24T05:43:11;13.50;61.20
11107;DHT22;5607;48.302;14.294;2023-04-24T05:45:57;13.30;51.10
11107;DHT22;5607;48.302;14.294;2023-04-24T05:48:43;13.10;79.50
11107;DHT22;5607;48.302;14.294;2023-04-24T05:51:29;13.20;84.40
11107;DHT22;5607;48.302;14.294;2023-04-24T05:54:17;13.20;99.90
11107;DHT22;5607;48.302;14.294;2023-04-24T05:57:03;13.20;87.90
11107;DHT22;5607;48.302;14.294;2023-04-24T05:59:53;13.00;99.90
11107;DHT22;5607;48.302;14.294;2023-04-24T06:02:39;12.90;99.90
11107;DHT22;5607;48.302;14.294;2023-04-24T06:05:27;12.70;99.90
11107;DHT22;5607;48.302;14.294;2023-04-24T06:08:13;12.70;99.90
11107;DHT22;5607;48.302;14.294;2023-04-24T06:10:59;12.80;99.90
11107;DHT22;5607;48.302;14.294;2023-04-24T06:13:45;12.60;99.90
11107;DHT22;5607;48.302;14.294;2023-04-24T06:16:31;12.70;99.90
11107;DHT22;5607;48.302;14.294;2023-04-24T06:19:18;12.80;99.90
11107;DHT22;5607;48.302;14.294;2023-04-24T06:22:05;12.70;99.90
11107;DHT22;5607;48.302;14.294;2023-04-24T06:24:51;12.70;99.90
11107;DHT22;5607;48.302;14.294;2023-04-24T06:27:37;12.80;99.90
11107;DHT22;5607;48.302;14.294;2023-04-24T06:30:24;12.80;99.90
11107;DHT22;5607;48.302;14.294;2023-04-24T06:33:10;13.00;99.90
11107;DHT22;5607;48.302;14.294;2023-04-24T06:35:57;13.10;62.80
11107;DHT22;5607;48.302;14.294;2023-04-24T06:38:43;13.10;61.70
11107;DHT22;5607;48.302;14.294;2023-04-24T06:41:29;13.10;80.60
11107;DHT22;5607;48.302;14.294;2023-04-24T06:44:15;13.30;72.60
11107;DHT22;5607;48.302;14.294;2023-04-24T06:47:02;13.20;38.10
11107;DHT22;5607;48.302;14.294;2023-04-24T06:49:48;13.20;54.70
11107;DHT22;5607;48.302;14.294;2023-04-24T06:52:36;13.20;57.50
11107;DHT22;5607;48.302;14.294;2023-04-24T06:55:24;13.20;61.00
11107;DHT22;5607;48.302;14.294;2023-04-24T06:58:10;13.10;87.50
11107;DHT22;5607;48.302;14.294;2023-04-24T07:00:56;13.20;94.90
11107;DHT22;5607;48.302;14.294;2023-04-24T07:03:43;13.20;82.50
11107;DHT22;5607;48.302;14.294;2023-04-24T07:06:29;13.20;65.00
11107;DHT22;5607;48.302;14.294;2023-04-24T07:09:17;13.30;59.30
11107;DHT22;5607;48.302;14.294;2023-04-24T07:12:06;13.60;89.00
11107;DHT22;5607;48.302;14.294;2023-04-24T07:14:53;13.60;25.40
11107;DHT22;5607;48.302;14.294;2023-04-24T07:17:40;13.60;36.20
11107;DHT22;5607;48.302;14.294;2023-04-24T07:20:29;13.40;27.40
11107;DHT22;5607;48.302;14.294;2023-04-24T07:23:17;13.50;70.70
11107;DHT22;5607;48.302;14.294;2023-04-24T07:26:03;13.60;51.40
11107;DHT22;5607;48.302;14.294;2023-04-24T07:28:49;13.50;59.00
11107;DHT22;5607;48.302;14.294;2023-04-24T07:31:37;13.40;45.50
11107;DHT22;5607;48.302;14.294;2023-04-24T07:34:23;13.50;39.60
11107;DHT22;5607;48.302;14.294;2023-04-24T07:37:09;13.70;47.20
11107;DHT22;5607;48.302;14.294;2023-04-24T07:39:56;13.90;15.20
11107;DHT22;5607;48.302;14.294;2023-04-24T07:42:42;14.00;3.40
11107;DHT22;5607;48.302;14.294;2023-04-24T07:45:29;14.10;1.00
11107;DHT22;5607;48.302;14.294;2023-04-24T07:48:17;14.00;1.00
11107;DHT22;5607;48.302;14.294;2023-04-24T07:51:03;13.90;2.60
11107;DHT22;5607;48.302;14.294;2023-04-24T07:53:50;14.10;16.60
11107;DHT22;5607;48.302;14.294;2023-04-24T07:56:36;14.10;1.00
11107;DHT22;5607;48.302;14.294;2023-04-24T07:59:24;14.10;1.00
11107;DHT22;5607;48.302;14.294;2023-04-24T08:02:11;14.20;1.00
11107;DHT22;5607;48.302;14.294;2023-04-24T08:04:57;14.20;1.00
11107;DHT22;5607;48.302;14.294;2023-04-24T08:07:45;14.10;1.00
11107;DHT22;5607;48.302;14.294;2023-04-24T08:10:32;14.10;1.00
11107;DHT22;5607;48.302;14.294;2023-04-24T08:13:18;14.00;1.00
11107;DHT22;5607;48.302;14.294;2023-04-24T08:16:04;14.20;1.00
11107;DHT22;5607;48.302;14.294;2023-04-24T08:18:51;14.30;1.00
11107;DHT22;5607;48.302;14.294;2023-04-24T08:21:37;14.20;1.00
11107;DHT22;5607;48.302;14.294;2023-04-24T08:24:24;14.10;1.00
11107;DHT22;5607;48.302;14.294;2023-04-24T08:27:10;13.80;31.20
11107;DHT22;5607;48.302;14.294;2023-04-24T08:29:56;13.50;20.60
11107;DHT22;5607;48.302;14.294;2023-04-24T08:32:43;13.40;74.80
11107;DHT22;5607;48.302;14.294;2023-04-24T08:35:30;13.60;69.10
11107;DHT22;5607;48.302;14.294;2023-04-24T08:38:17;13.70;58.20
11107;DHT22;5607;48.302;14.294;2023-04-24T08:41:04;13.70;16.60
11107;DHT22;5607;48.302;14.294;2023-04-24T08:43:51;13.60;70.10
11107;DHT22;5607;48.302;14.294;2023-04-24T08:46:38;13.80;79.70
11107;DHT22;5607;48.302;14.294;2023-04-24T08:49:25;13.80;1.00
11107;DHT22;5607;48.302;14.294;2023-04-24T08:52:13;13.80;38.20
11107;DHT22;5607;48.302;14.294;2023-04-24T08:55:02;13.90;24.90
11107;DHT22;5607;48.302;14.294;2023-04-24T08:57:50;13.90;36.80
11107;DHT22;5607;48.302;14.294;2023-04-24T09:00:39;14.00;44.40
11107;DHT22;5607;48.302;14.294;2023-04-24T09:03:26;14.20;33.80
11107;DHT22;5607;48.302;14.294;2023-04-24T09:06:13;14.30;10.50
11107;DHT22;5607;48.302;14.294;2023-04-24T09:09:00;14.60;2.60
11107;DHT22;5607;48.302;14.294;2023-04-24T09:11:49;14.10;31.10
11107;DHT22;5607;48.302;14.294;2023-04-24T09:14:35;14.10;19.60
11107;DHT22;5607;48.302;14.294;2023-04-24T09:17:24;14.20;6.40
11107;DHT22;5607;48.302;14.294;2023-04-24T09:26:25;13.60;99.90
11107;DHT22;5607;48.302;14.294;2023-04-24T09:32:19;14.00;91.50
11107;DHT22;5607;48.302;14.294;2023-04-24T09:35:11;13.80;57.10
11107;DHT22;5607;48.302;14.294;2023-04-24T09:37:58;13.90;99.90
11107;DHT22;5607;48.302;14.294;2023-04-24T09:40:45;13.90;99.90
11107;DHT22;5607;48.302;14.294;2023-04-24T09:43:32;14.00;49.10
11107;DHT22;5607;48.302;14.294;2023-04-24T09:46:18;14.30;58.20
11107;DHT22;5607;48.302;14.294;2023-04-24T09:49:23;14.50;1.00
11107;DHT22;5607;48.302;14.294;2023-04-24T09:52:11;14.50;1.00
11107;DHT22;5607;48.302;14.294;2023-04-24T09:54:57;14.60;8.60
11107;DHT22;5607;48.302;14.294;2023-04-24T09:57:47;14.40;1.00
11107;DHT22;5607;48.302;14.294;2023-04-24T10:00:34;14.30;3.00
11107;DHT22;5607;48.302;14.294;2023-04-24T10:03:23;14.50;39.40
11107;DHT22;5607;48.302;14.294;2023-04-24T10:06:11;14.80;1.00
11107;DHT22;5607;48.302;14.294;2023-04-24T10:08:57;14.90;1.00
11107;DHT22;5607;48.302;14.294;2023-04-24T10:11:45;15.40;1.00
11107;DHT22;5607;48.302;14.294;2023-04-24T10:14:31;15.10;1.00
11107;DHT22;5607;48.302;14.294;2023-04-24T10:17:17;15.20;1.00
11107;DHT22;5607;48.302;14.294;2023-04-24T10:20:06;15.50;1.00
11107;DHT22;5607;48.302;14.294;2023-04-24T10:22:53;15.90;1.00
11107;DHT22;5607;48.302;14.294;2023-04-24T10:25:40;16.10;1.00
11107;DHT22;5607;48.302;14.294;2023-04-24T10:28:26;16.30;1.00
11107;DHT22;5607;48.302;14.294;2023-04-24T10:31:14;16.20;1.00
11107;DHT22;5607;48.302;14.294;2023-04-24T10:34:00;15.90;1.00
11107;DHT22;5607;48.302;14.294;2023-04-24T10:36:50;15.90;1.00
11107;DHT22;5607;48.302;14.294;2023-04-24T10:39:37;15.90;1.00
11107;DHT22;5607;48.302;14.294;2023-04-24T10:42:27;15.60;1.00
11107;DHT22;5607;48.302;14.294;2023-04-24T10:45:20;15.50;1.00
11107;DHT22;5607;48.302;14.294;2023-04-24T10:48:08;15.70;1.00
11107;DHT22;5607;48.302;14.294;2023-04-24T10:50:59;15.30;1.00
11107;DHT22;5607;48.302;14.294;2023-04-24T10:53:45;15.40;1.00
11107;DHT22;5607;48.302;14.294;2023-04-24T10:56:32;15.80;1.00
11107;DHT22;5607;48.302;14.294;2023-04-24T10:59:27;16.10;1.00
11107;DHT22;5607;48.302;14.294;2023-04-24T11:02:24;16.70;1.00
11107;DHT22;5607;48.302;14.294;2023-04-24T11:05:21;16.70;1.00
11107;DHT22;5607;48.302;14.294;2023-04-24T11:08:11;16.60;1.00
11107;DHT22;5607;48.302;14.294;2023-04-24T11:11:01;16.20;1.00
11107;DHT22;5607;48.302;14.294;2023-04-24T11:19:27;15.80;1.00
11107;DHT22;5607;48.302;14.294;2023-04-24T11:22:14;16.00;1.00
11107;DHT22;5607;48.302;14.294;2023-04-24T11:25:03;15.90;1.00
11107;DHT22;5607;48.302;14.294;2023-04-24T11:27:50;16.00;1.00
11107;DHT22;5607;48.302;14.294;2023-04-24T11:30:36;16.40;1.00
11107;DHT22;5607;48.302;14.294;2023-04-24T11:33:25;16.70;1.00
11107;DHT22;5607;48.302;14.294;2023-04-24T11:36:12;16.60;1.00
11107;DHT22;5607;48.302;14.294;2023-04-24T11:38:59;16.50;1.00
11107;DHT22;5607;48.302;14.294;2023-04-24T11:41:45;16.20;1.00
11107;DHT22;5607;48.302;14.294;2023-04-24T11:44:32;16.10;1.00
11107;DHT22;5607;48.302;14.294;2023-04-24T11:47:19;16.00;1.00
11107;DHT22;5607;48.302;14.294;2023-04-24T11:50:10;15.60;1.00
11107;DHT22;5607;48.302;14.294;2023-04-24T11:52:57;14.90;1.00
11107;DHT22;5607;48.302;14.294;2023-04-24T11:55:43;14.50;1.00
11107;DHT22;5607;48.302;14.294;2023-04-24T11:58:34;14.50;1.00
11107;DHT22;5607;48.302;14.294;2023-04-24T12:01:22;14.40;1.00
11107;DHT22;5607;48.302;14.294;2023-04-24T12:04:09;14.20;1.00
11107;DHT22;5607;48.302;14.294;2023-04-24T12:06:58;14.10;1.00
11107;DHT22;5607;48.302;14.294;2023-04-24T12:09:49;14.10;1.00
11107;DHT22;5607;48.302;14.294;2023-04-24T12:12:36;14.30;1.00
11107;DHT22;5607;48.302;14.294;2023-04-24T12:15:23;14.60;1.00
11107;DHT22;5607;48.302;14.294;2023-04-24T12:18:11;14.60;1.00
11107;DHT22;5607;48.302;14.294;2023-04-24T12:21:16;14.60;1.00
11107;DHT22;5607;48.302;14.294;2023-04-24T12:24:05;14.70;1.00
11107;DHT22;5607;48.302;14.294;2023-04-24T12:26:52;14.40;1.00
11107;DHT22;5607;48.302;14.294;2023-04-24T12:29:50;13.50;1.00
11107;DHT22;5607;48.302;14.294;2023-04-24T12:32:40;12.70;3.00
11107;DHT22;5607;48.302;14.294;2023-04-24T12:35:27;12.40;39.30
11107;DHT22;5607;48.302;14.294;2023-04-24T12:38:15;12.30;18.70
11107;DHT22;5607;48.302;14.294;2023-04-24T12:41:04;12.20;99.90
11107;DHT22;5607;48.302;14.294;2023-04-24T12:43:52;12.20;99.90
11107;DHT22;5607;48.302;14.294;2023-04-24T12:46:38;12.00;99.90
11107;DHT22;5607;48.302;14.294;2023-04-24T12:49:25;11.90;99.90
11107;DHT22;5607;48.302;14.294;2023-04-24T12:52:11;12.00;99.90
11107;DHT22;5607;48.302;14.294;2023-04-24T12:54:58;12.20;99.90
11107;DHT22;5607;48.302;14.294;2023-04-24T12:57:45;12.30;99.90
11107;DHT22;5607;48.302;14.294;2023-04-24T13:00:31;12.50;99.90
11107;DHT22;5607;48.302;14.294;2023-04-24T13:03:17;12.60;98.10
11107;DHT22;5607;48.302;14.294;2023-04-24T13:06:04;12.70;99.90
11107;DHT22;5607;48.302;14.294;2023-04-24T13:08:50;12.90;86.80
11107;DHT22;5607;48.302;14.294;2023-04-24T13:11:37;13.10;29.30
11107;DHT22;5607;48.302;14.294;2023-04-24T13:14:23;13.30;1.00
11107;DHT22;5607;48.302;14.294;2023-04-24T13:17:09;13.50;1.00
11107;DHT22;5607;48.302;14.294;2023-04-24T13:19:57;13.90;1.00
11107;DHT22;5607;48.302;14.294;2023-04-24T13:22:43;14.20;1.00
11107;DHT22;5607;48.302;14.294;2023-04-24T13:25:34;14.40;1.00
11107;DHT22;5607;48.302;14.294;2023-04-24T13:28:20;14.90;1.00
11107;DHT22;5607;48.302;14.294;2023-04-24T13:31:06;15.40;1.00
11107;DHT22;5607;48.302;14.294;2023-04-24T13:33:52;15.80;1.00
11107;DHT22;5607;48.302;14.294;2023-04-24T13:36:39;15.50;1.00
11107;DHT22;5607;48.302;14.294;2023-04-24T13:39:25;15.40;1.00
11107;DHT22;5607;48.302;14.294;2023-04-24T13:42:12;15.70;1.00
11107;DHT22;5607;48.302;14.294;2023-04-24T13:44:58;16.10;1.00
11107;DHT22;5607;48.302;14.294;2023-04-24T13:47:46;16.30;1.00
11107;DHT22;5607;48.302;14.294;2023-04-24T13:50:32;16.20;99.90
11107;DHT22;5607;48.302;14.294;2023-04-24T13:53:18;15.60;1.00
11107;DHT22;5607;48.302;14.294;2023-04-24T13:56:05;15.70;1.00
11107;DHT22;5607;48.302;14.294;2023-04-24T13:58:55;15.90;1.00
11107;DHT22;5607;48.302;14.294;2023-04-24T14:01:41;16.20;99.90
11107;DHT22;5607;48.302;14.294;2023-04-24T14:04:28;15.80;99.90
11107;DHT22;5607;48.302;14.294;2023-04-24T14:07:14;16.30;99.90
11107;DHT22;5607;48.302;14.294;2023-04-24T14:10:00;16.80;99.90
11107;DHT22;5607;48.302;14.294;2023-04-24T14:12:48;16.50;99.90
11107;DHT22;5607;48.302;14.294;2023-04-24T14:15:37;17.10;99.90
11107;DHT22;5607;48.302;14.294;2023-04-24T14:18:23;17.50;99.90
11107;DHT22;5607;48.302;14.294;2023-04-24T14:21:09;17.50;99.90
11107;DHT22;5607;48.302;14.294;2023-04-24T14:23:55;17.40;99.90
11107;DHT22;5607;48.302;14.294;2023-04-24T14:26:42;17.20;99.90
11107;DHT22;5607;48.302;14.294;2023-04-24T14:29:28;17.30;99.90
11107;DHT22;5607;48.302;14.294;2023-04-24T14:32:14;18.90;99.90
11107;DHT22;5607;48.302;14.294;2023-04-24T14:35:01;19.60;99.90
11107;DHT22;5607;48.302;14.294;2023-04-24T14:37:47;18.80;99.90
11107;DHT22;5607;48.302;14.294;2023-04-24T14:40:34;18.30;99.90
11107;DHT22;5607;48.302;14.294;2023-04-24T14:43:20;17.70;99.90
11107;DHT22;5607;48.302;14.294;2023-04-24T14:46:07;17.10;99.90
11107;DHT22;5607;48.302;14.294;2023-04-24T14:48:54;16.90;99.90
11107;DHT22;5607;48.302;14.294;2023-04-24T14:51:41;16.70;99.90
11107;DHT22;5607;48.302;14.294;2023-04-24T14:57:20;16.40;99.90
11107;DHT22;5607;48.302;14.294;2023-04-24T15:00:09;16.00;99.90
11107;DHT22;5607;48.302;14.294;2023-04-24T15:02:56;15.20;99.90
11107;DHT22;5607;48.302;14.294;2023-04-24T15:05:42;14.70;99.90
11107;DHT22;5607;48.302;14.294;2023-04-24T15:08:29;14.10;1.00
11107;DHT22;5607;48.302;14.294;2023-04-24T15:11:17;13.40;1.00
11107;DHT22;5607;48.302;14.294;2023-04-24T15:14:03;13.20;1.00
11107;DHT22;5607;48.302;14.294;2023-04-24T15:16:49;13.20;1.00
11107;DHT22;5607;48.302;14.294;2023-04-24T15:19:35;13.30;1.00
11107;DHT22;5607;48.302;14.294;2023-04-24T15:22:23;13.30;1.00
11107;DHT22;5607;48.302;14.294;2023-04-24T15:25:09;13.20;1.00
11107;DHT22;5607;48.302;14.294;2023-04-24T15:27:56;13.20;1.00
11107;DHT22;5607;48.302;14.294;2023-04-24T15:30:42;13.30;1.00
11107;DHT22;5607;48.302;14.294;2023-04-24T15:33:28;13.40;1.00
11107;DHT22;5607;48.302;14.294;2023-04-24T15:36:15;13.50;1.00
11107;DHT22;5607;48.302;14.294;2023-04-24T15:39:02;13.70;1.00
11107;DHT22;5607;48.302;14.294;2023-04-24T15:41:48;13.70;1.00
11107;DHT22;5607;48.302;14.294;2023-04-24T15:44:36;13.60;1.00
11107;DHT22;5607;48.302;14.294;2023-04-24T15:47:22;13.60;1.00
11107;DHT22;5607;48.302;14.294;2023-04-24T15:50:08;13.70;1.00
11107;DHT22;5607;48.302;14.294;2023-04-24T15:52:55;13.90;1.00
11107;DHT22;5607;48.302;14.294;2023-04-24T15:55:41;13.90;1.00
11107;DHT22;5607;48.302;14.294;2023-04-24T15:58:28;13.90;1.00
11107;DHT22;5607;48.302;14.294;2023-04-24T16:01:14;13.80;1.00
11107;DHT22;5607;48.302;14.294;2023-04-24T16:04:00;13.80;1.00
11107;DHT22;5607;48.302;14.294;2023-04-24T16:06:47;13.90;1.00
11107;DHT22;5607;48.302;14.294;2023-04-24T16:09:33;14.00;1.00
11107;DHT22;5607;48.302;14.294;2023-04-24T16:12:21;14.10;1.00
11107;DHT22;5607;48.302;14.294;2023-04-24T16:15:07;14.10;1.00
11107;DHT22;5607;48.302;14.294;2023-04-24T16:17:55;14.10;1.00
11107;DHT22;5607;48.302;14.294;2023-04-24T16:20:41;14.10;1.00
11107;DHT22;5607;48.302;14.294;2023-04-24T16:23:27;14.30;1.00
11107;DHT22;5607;48.302;14.294;2023-04-24T16:26:14;14.40;1.00
11107;DHT22;5607;48.302;14.294;2023-04-24T16:29:00;14.50;1.00
11107;DHT22;5607;48.302;14.294;2023-04-24T16:31:47;14.60;99.90
11107;DHT22;5607;48.302;14.294;2023-04-24T16:34:33;14.70;1.00
11107;DHT22;5607;48.302;14.294;2023-04-24T16:37:19;14.60;1.00
11107;DHT22;5607;48.302;14.294;2023-04-24T16:40:06;14.70;99.90
11107;DHT22;5607;48.302;14.294;2023-04-24T16:42:55;14.90;1.00
11107;DHT22;5607;48.302;14.294;2023-04-24T16:45:41;15.00;99.90
11107;DHT22;5607;48.302;14.294;2023-04-24T16:48:28;14.80;99.90
11107;DHT22;5607;48.302;14.294;2023-04-24T16:51:14;14.80;99.90
11107;DHT22;5607;48.302;14.294;2023-04-24T16:54:00;14.50;1.00
11107;DHT22;5607;48.302;14.294;2023-04-24T16:56:47;14.50;1.00
11107;DHT22;5607;48.302;14.294;2023-04-24T16:59:34;14.30;1.00
11107;DHT22;5607;48.302;14.294;2023-04-24T17:02:20;14.10;1.00
11107;DHT22;5607;48.302;14.294;2023-04-24T17:05:06;14.00;1.00
11107;DHT22;5607;48.302;14.294;2023-04-24T17:07:53;14.00;1.00
11107;DHT22;5607;48.302;14.294;2023-04-24T17:10:41;14.10;1.00
11107;DHT22;5607;48.302;14.294;2023-04-24T17:13:28;14.20;1.00
11107;DHT22;5607;48.302;14.294;2023-04-24T17:16:14;14.30;1.00
11107;DHT22;5607;48.302;14.294;2023-04-24T17:19:02;14.40;1.00
11107;DHT22;5607;48.302;14.294;2023-04-24T17:21:49;14.40;1.00
11107;DHT22;5607;48.302;14.294;2023-04-24T17:24:35;14.10;99.90
11107;DHT22;5607;48.302;14.294;2023-04-24T17:27:22;13.90;99.90
11107;DHT22;5607;48.302;14.294;2023-04-24T17:30:10;13.90;1.00
11107;DHT22;5607;48.302;14.294;2023-04-24T17:32:57;13.90;1.00
11107;DHT22;5607;48.302;14.294;2023-04-24T17:35:43;13.90;1.00
11107;DHT22;5607;48.302;14.294;2023-04-24T17:38:29;13.70;1.00
11107;DHT22;5607;48.302;14.294;2023-04-24T17:41:16;13.60;1.00
11107;DHT22;5607;48.302;14.294;2023-04-24T17:44:02;13.60;1.00
11107;DHT22;5607;48.302;14.294;2023-04-24T17:46:48;13.40;1.00
11107;DHT22;5607;48.302;14.294;2023-04-24T17:49:34;13.40;1.00
11107;DHT22;5607;48.302;14.294;2023-04-24T17:52:23;13.40;1.00
11107;DHT22;5607;48.302;14.294;2023-04-24T17:55:09;13.20;1.00
11107;DHT22;5607;48.302;14.294;2023-04-24T17:57:56;13.10;1.00
11107;DHT22;5607;48.302;14.294;2023-04-24T18:00:42;13.10;1.00
11107;DHT22;5607;48.302;14.294;2023-04-24T18:03:28;13.00;1.00